sensor_id;sensor_type;location;lat;lon;timestamp;temperature;humidity
19555;DHT22;9924;50.828;6.440;2023-09-08T00:02:25;17.70;99.90
19555;DHT22;9924;50.828;6.440;2023-09-08T00:04:51;17.80;99.90
19555;DHT22;9924;50.828;6.440;2023-09-08T00:07:17;17.80;99.90
19555;DHT22;9924;50.828;6.440;2023-09-08T00:09:43;17.90;99.90
19555;DHT22;9924;50.828;6.440;2023-09-08T00:12:08;17.80;99.90
19555;DHT22;9924;50.828;6.440;2023-09-08T00:14:34;17.80;99.90
19555;DHT22;9924;50.828;6.440;2023-09-08T00:17:00;17.90;99.90
19555;DHT22;9924;50.828;6.440;2023-09-08T00:19:26;17.90;99.90
19555;DHT22;9924;50.828;6.440;2023-09-08T00:21:52;17.90;99.90
19555;DHT22;9924;50.828;6.440;2023-09-08T00:24:18;17.90;99.90
19555;DHT22;9924;50.828;6.440;2023-09-08T00:26:44;17.90;99.90
19555;DHT22;9924;50.828;6.440;2023-09-08T00:29:10;17.90;99.90
19555;DHT22;9924;50.828;6.440;2023-09-08T00:31:35;17.90;99.90
19555;DHT22;9924;50.828;6.440;2023-09-08T00:34:01;18.00;99.90
19555;DHT22;9924;50.828;6.440;2023-09-08T00:36:27;18.00;99.90
19555;DHT22;9924;50.828;6.440;2023-09-08T00:38:52;18.00;99.90
19555;DHT22;9924;50.828;6.440;2023-09-08T00:41:18;18.10;99.90
19555;DHT22;9924;50.828;6.440;2023-09-08T00:43:44;18.10;99.90
19555;DHT22;9924;50.828;6.440;2023-09-08T00:46:10;18.00;99.90
19555;DHT22;9924;50.828;6.440;2023-09-08T00:48:36;18.00;99.90
19555;DHT22;9924;50.828;6.440;2023-09-08T00:51:03;18.00;99.90
19555;DHT22;9924;50.828;6.440;2023-09-08T00:53:31;18.00;99.90
19555;DHT22;9924;50.828;6.440;2023-09-08T00:55:58;17.90;99.90
19555;DHT22;9924;50.828;6.440;2023-09-08T00:58:24;17.90;99.90
19555;DHT22;9924;50.828;6.440;2023-09-08T01:00:50;17.90;99.90
19555;DHT22;9924;50.828;6.440;2023-09-08T01:03:16;17.80;99.90
19555;DHT22;9924;50.828;6.440;2023-09-08T01:05:42;17.80;99.90
19555;DHT22;9924;50.828;6.440;2023-09-08T01:08:08;17.90;99.90
19555;DHT22;9924;50.828;6.440;2023-09-08T01:10:35;17.80;99.90
19555;DHT22;9924;50.828;6.440;2023-09-08T01:13:02;17.80;99.90
19555;DHT22;9924;50.828;6.440;2023-09-08T01:15:28;17.70;99.90
19555;DHT22;9924;50.828;6.440;2023-09-08T01:17:54;17.70;99.90
19555;DHT22;9924;50.828;6.440;2023-09-08T01:20:23;17.50;99.90
19555;DHT22;9924;50.828;6.440;2023-09-08T01:23:17;17.50;99.90
19555;DHT22;9924;50.828;6.440;2023-09-08T01:25:55;17.40;99.90
19555;DHT22;9924;50.828;6.440;2023-09-08T01:28:22;17.40;99.90
19555;DHT22;9924;50.828;6.440;2023-09-08T01:30:49;17.40;99.90
19555;DHT22;9924;50.828;6.440;2023-09-08T01:33:16;17.50;99.90
19555;DHT22;9924;50.828;6.440;2023-09-08T01:35:42;17.60;99.90
19555;DHT22;9924;50.828;6.440;2023-09-08T01:38:08;17.60;99.90
19555;DHT22;9924;50.828;6.440;2023-09-08T01:40:34;17.70;99.90
19555;DHT22;9924;50.828;6.440;2023-09-08T01:43:00;17.70;99.90
19555;DHT22;9924;50.828;6.440;2023-09-08T01:45:26;17.80;99.90
19555;DHT22;9924;50.828;6.440;2023-09-08T01:47:52;17.80;99.90
19555;DHT22;9924;50.828;6.440;2023-09-08T01:50:17;17.90;99.90
19555;DHT22;9924;50.828;6.440;2023-09-08T01:52:47;18.00;99.90
19555;DHT22;9924;50.828;6.440;2023-09-08T01:55:14;18.10;99.90
19555;DHT22;9924;50.828;6.440;2023-09-08T01:57:40;18.20;99.90
19555;DHT22;9924;50.828;6.440;2023-09-08T02:00:06;18.30;99.90
19555;DHT22;9924;50.828;6.440;2023-09-08T02:02:32;18.30;99.90
19555;DHT22;9924;50.828;6.440;2023-09-08T02:04:58;18.40;99.90
19555;DHT22;9924;50.828;6.440;2023-09-08T02:07:23;18.40;99.90
19555;DHT22;9924;50.828;6.440;2023-09-08T02:09:49;18.40;99.90
19555;DHT22;9924;50.828;6.440;2023-09-08T02:12:15;18.30;99.90
19555;DHT22;9924;50.828;6.440;2023-09-08T02:14:40;18.20;99.90
19555;DHT22;9924;50.828;6.440;2023-09-08T02:17:06;18.20;99.90
19555;DHT22;9924;50.828;6.440;2023-09-08T02:19:32;18.10;99.90
19555;DHT22;9924;50.828;6.440;2023-09-08T02:21:57;18.10;99.90
19555;DHT22;9924;50.828;6.440;2023-09-08T02:24:23;18.00;99.90
19555;DHT22;9924;50.828;6.440;2023-09-08T02:26:49;18.00;99.90
19555;DHT22;9924;50.828;6.440;2023-09-08T02:29:15;17.90;99.90
19555;DHT22;9924;50.828;6.440;2023-09-08T02:31:41;17.80;99.90
19555;DHT22;9924;50.828;6.440;2023-09-08T02:34:06;17.70;99.90
19555;DHT22;9924;50.828;6.440;2023-09-08T02:36:32;17.60;99.90
19555;DHT22;9924;50.828;6.440;2023-09-08T02:38:58;17.40;99.90
19555;DHT22;9924;50.828;6.440;2023-09-08T02:41:23;17.30;99.90
19555;DHT22;9924;50.828;6.440;2023-09-08T02:43:49;17.30;99.90
19555;DHT22;9924;50.828;6.440;2023-09-08T02:46:15;17.20;99.90
19555;DHT22;9924;50.828;6.440;2023-09-08T02:48:41;17.20;99.90
19555;DHT22;9924;50.828;6.440;2023-09-08T02:51:07;17.10;99.90
19555;DHT22;9924;50.828;6.440;2023-09-08T02:53:32;17.00;99.90
19555;DHT22;9924;50.828;6.440;2023-09-08T02:55:59;17.00;99.90
19555;DHT22;9924;50.828;6.440;2023-09-08T02:58:25;16.90;99.90
19555;DHT22;9924;50.828;6.440;2023-09-08T03:00:51;16.90;99.90
19555;DHT22;9924;50.828;6.440;2023-09-08T03:03:18;16.90;99.90
19555;DHT22;9924;50.828;6.440;2023-09-08T03:05:44;17.00;99.90
19555;DHT22;9924;50.828;6.440;2023-09-08T03:08:10;17.00;99.90
19555;DHT22;9924;50.828;6.440;2023-09-08T03:10:35;17.00;99.90
19555;DHT22;9924;50.828;6.440;2023-09-08T03:13:01;17.00;99.90
19555;DHT22;9924;50.828;6.440;2023-09-08T03:15:27;17.00;99.90
19555;DHT22;9924;50.828;6.440;2023-09-08T03:17:57;16.90;99.90
19555;DHT22;9924;50.828;6.440;2023-09-08T03:20:26;16.90;99.90
19555;DHT22;9924;50.828;6.440;2023-09-08T03:22:54;16.80;99.90
19555;DHT22;9924;50.828;6.440;2023-09-08T03:25:20;16.80;99.90
19555;DHT22;9924;50.828;6.440;2023-09-08T03:27:46;16.70;99.90
19555;DHT22;9924;50.828;6.440;2023-09-08T03:30:12;16.70;99.90
19555;DHT22;9924;50.828;6.440;2023-09-08T03:32:38;16.60;99.90
19555;DHT22;9924;50.828;6.440;2023-09-08T03:35:04;16.50;99.90
19555;DHT22;9924;50.828;6.440;2023-09-08T03:37:34;16.50;99.90
19555;DHT22;9924;50.828;6.440;2023-09-08T03:40:00;16.40;99.90
19555;DHT22;9924;50.828;6.440;2023-09-08T03:42:26;16.30;99.90
19555;DHT22;9924;50.828;6.440;2023-09-08T03:44:52;16.20;99.90
19555;DHT22;9924;50.828;6.440;2023-09-08T03:47:17;16.20;99.90
19555;DHT22;9924;50.828;6.440;2023-09-08T03:49:43;16.10;99.90
19555;DHT22;9924;50.828;6.440;2023-09-08T03:52:08;16.00;99.90
19555;DHT22;9924;50.828;6.440;2023-09-08T03:54:34;16.00;99.90
19555;DHT22;9924;50.828;6.440;2023-09-08T03:57:00;15.90;99.90
19555;DHT22;9924;50.828;6.440;2023-09-08T03:59:26;15.80;99.90
19555;DHT22;9924;50.828;6.440;2023-09-08T04:01:51;15.90;99.90
19555;DHT22;9924;50.828;6.440;2023-09-08T04:04:17;15.60;99.90
19555;DHT22;9924;50.828;6.440;2023-09-08T04:06:45;15.50;99.90
19555;DHT22;9924;50.828;6.440;2023-09-08T04:09:11;15.40;99.90
19555;DHT22;9924;50.828;6.440;2023-09-08T04:11:36;15.40;99.90
19555;DHT22;9924;50.828;6.440;2023-09-08T04:14:02;15.30;99.90
19555;DHT22;9924;50.828;6.440;2023-09-08T04:16:28;15.30;99.90
19555;DHT22;9924;50.828;6.440;2023-09-08T04:18:54;15.30;99.90
19555;DHT22;9924;50.828;6.440;2023-09-08T04:21:19;15.30;99.90
19555;DHT22;9924;50.828;6.440;2023-09-08T04:23:45;15.20;99.90
19555;DHT22;9924;50.828;6.440;2023-09-08T04:26:12;15.20;99.90
19555;DHT22;9924;50.828;6.440;2023-09-08T04:28:38;15.20;99.90
19555;DHT22;9924;50.828;6.440;2023-09-08T04:31:04;15.20;99.90
19555;DHT22;9924;50.828;6.440;2023-09-08T04:33:30;15.10;99.90
19555;DHT22;9924;50.828;6.440;2023-09-08T04:35:55;15.20;99.90
19555;DHT22;9924;50.828;6.440;2023-09-08T04:38:21;15.10;99.90
19555;DHT22;9924;50.828;6.440;2023-09-08T04:40:47;15.10;99.90
19555;DHT22;9924;50.828;6.440;2023-09-08T04:43:13;15.10;99.90
19555;DHT22;9924;50.828;6.440;2023-09-08T04:45:38;15.00;99.90
19555;DHT22;9924;50.828;6.440;2023-09-08T04:48:04;15.00;99.90
19555;DHT22;9924;50.828;6.440;2023-09-08T04:50:30;15.00;99.90
19555;DHT22;9924;50.828;6.440;2023-09-08T04:52:56;15.00;99.90
19555;DHT22;9924;50.828;6.440;2023-09-08T04:55:21;15.10;99.90
19555;DHT22;9924;50.828;6.440;2023-09-08T04:57:47;15.10;99.90
19555;DHT22;9924;50.828;6.440;2023-09-08T05:00:13;15.20;99.90
19555;DHT22;9924;50.828;6.440;2023-09-08T05:02:39;15.10;99.90
19555;DHT22;9924;50.828;6.440;2023-09-08T05:05:05;15.10;99.90
19555;DHT22;9924;50.828;6.440;2023-09-08T05:07:31;15.10;99.90
19555;DHT22;9924;50.828;6.440;2023-09-08T05:09:56;15.10;99.90
19555;DHT22;9924;50.828;6.440;2023-09-08T05:12:22;15.20;99.90
19555;DHT22;9924;50.828;6.440;2023-09-08T05:14:47;15.20;99.90
19555;DHT22;9924;50.828;6.440;2023-09-08T05:17:13;15.20;99.90
19555;DHT22;9924;50.828;6.440;2023-09-08T05:19:39;15.20;99.90
19555;DHT22;9924;50.828;6.440;2023-09-08T05:22:05;15.30;99.90
19555;DHT22;9924;50.828;6.440;2023-09-08T05:24:32;15.20;99.90
19555;DHT22;9924;50.828;6.440;2023-09-08T05:26:58;15.30;99.90
19555;DHT22;9924;50.828;6.440;2023-09-08T05:29:24;15.30;99.90
19555;DHT22;9924;50.828;6.440;2023-09-08T05:31:49;15.40;99.90
19555;DHT22;9924;50.828;6.440;2023-09-08T05:34:15;15.40;99.90
19555;DHT22;9924;50.828;6.440;2023-09-08T05:36:41;15.40;99.90
19555;DHT22;9924;50.828;6.440;2023-09-08T05:39:08;15.40;99.90
19555;DHT22;9924;50.828;6.440;2023-09-08T05:41:33;15.50;99.90
19555;DHT22;9924;50.828;6.440;2023-09-08T05:44:00;15.60;99.90
19555;DHT22;9924;50.828;6.440;2023-09-08T05:46:26;15.60;99.90
19555;DHT22;9924;50.828;6.440;2023-09-08T05:48:52;15.60;99.90
19555;DHT22;9924;50.828;6.440;2023-09-08T05:51:18;15.70;99.90
19555;DHT22;9924;50.828;6.440;2023-09-08T05:53:44;15.70;99.90
19555;DHT22;9924;50.828;6.440;2023-09-08T05:56:10;15.80;99.90
19555;DHT22;9924;50.828;6.440;2023-09-08T05:58:35;16.00;99.90
19555;DHT22;9924;50.828;6.440;2023-09-08T06:01:02;16.00;99.90
19555;DHT22;9924;50.828;6.440;2023-09-08T06:03:28;16.20;99.90
19555;DHT22;9924;50.828;6.440;2023-09-08T06:05:54;16.30;99.90
19555;DHT22;9924;50.828;6.440;2023-09-08T06:08:20;16.40;99.90
19555;DHT22;9924;50.828;6.440;2023-09-08T06:10:46;16.60;99.90
19555;DHT22;9924;50.828;6.440;2023-09-08T06:13:11;16.70;99.90
19555;DHT22;9924;50.828;6.440;2023-09-08T06:15:37;16.90;99.90
19555;DHT22;9924;50.828;6.440;2023-09-08T06:18:03;17.00;99.90
19555;DHT22;9924;50.828;6.440;2023-09-08T06:20:29;17.20;99.90
19555;DHT22;9924;50.828;6.440;2023-09-08T06:22:54;17.40;99.90
19555;DHT22;9924;50.828;6.440;2023-09-08T06:25:20;17.60;99.90
19555;DHT22;9924;50.828;6.440;2023-09-08T06:27:46;18.00;99.90
19555;DHT22;9924;50.828;6.440;2023-09-08T06:30:12;18.30;99.90
19555;DHT22;9924;50.828;6.440;2023-09-08T06:32:42;18.70;99.90
19555;DHT22;9924;50.828;6.440;2023-09-08T06:35:08;19.00;99.90
19555;DHT22;9924;50.828;6.440;2023-09-08T06:37:39;19.40;99.90
19555;DHT22;9924;50.828;6.440;2023-09-08T06:40:06;19.70;99.90
19555;DHT22;9924;50.828;6.440;2023-09-08T06:42:32;20.00;99.90
19555;DHT22;9924;50.828;6.440;2023-09-08T06:44:59;20.30;99.90
19555;DHT22;9924;50.828;6.440;2023-09-08T06:47:25;20.60;99.90
19555;DHT22;9924;50.828;6.440;2023-09-08T06:49:51;20.80;99.90
19555;DHT22;9924;50.828;6.440;2023-09-08T06:52:19;21.00;99.90
19555;DHT22;9924;50.828;6.440;2023-09-08T06:54:45;21.20;99.90
19555;DHT22;9924;50.828;6.440;2023-09-08T06:57:12;21.50;99.90
19555;DHT22;9924;50.828;6.440;2023-09-08T06:59:38;21.80;99.90
19555;DHT22;9924;50.828;6.440;2023-09-08T07:02:03;22.00;99.90
19555;DHT22;9924;50.828;6.440;2023-09-08T07:04:30;22.30;99.90
19555;DHT22;9924;50.828;6.440;2023-09-08T07:06:56;22.50;99.90
19555;DHT22;9924;50.828;6.440;2023-09-08T07:09:21;22.60;99.90
19555;DHT22;9924;50.828;6.440;2023-09-08T07:11:47;22.70;99.90
19555;DHT22;9924;50.828;6.440;2023-09-08T07:14:13;22.90;99.90
19555;DHT22;9924;50.828;6.440;2023-09-08T07:16:38;23.00;99.90
19555;DHT22;9924;50.828;6.440;2023-09-08T07:19:05;23.20;99.90
19555;DHT22;9924;50.828;6.440;2023-09-08T07:21:30;23.50;99.90
19555;DHT22;9924;50.828;6.440;2023-09-08T07:23:56;23.70;99.90
19555;DHT22;9924;50.828;6.440;2023-09-08T07:26:22;23.90;99.90
19555;DHT22;9924;50.828;6.440;2023-09-08T07:28:47;24.10;99.90
19555;DHT22;9924;50.828;6.440;2023-09-08T07:31:14;24.30;99.90
19555;DHT22;9924;50.828;6.440;2023-09-08T07:33:40;24.50;99.90
19555;DHT22;9924;50.828;6.440;2023-09-08T07:36:06;24.60;99.90
19555;DHT22;9924;50.828;6.440;2023-09-08T07:38:33;24.70;99.90
19555;DHT22;9924;50.828;6.440;2023-09-08T07:40:59;24.80;99.90
19555;DHT22;9924;50.828;6.440;2023-09-08T07:43:28;25.00;99.90
19555;DHT22;9924;50.828;6.440;2023-09-08T07:45:54;25.20;99.90
19555;DHT22;9924;50.828;6.440;2023-09-08T07:48:19;25.20;99.90
19555;DHT22;9924;50.828;6.440;2023-09-08T07:50:45;25.40;99.90
19555;DHT22;9924;50.828;6.440;2023-09-08T07:53:11;25.70;99.90
19555;DHT22;9924;50.828;6.440;2023-09-08T07:55:37;26.00;99.90
19555;DHT22;9924;50.828;6.440;2023-09-08T07:58:03;26.30;99.90
19555;DHT22;9924;50.828;6.440;2023-09-08T08:00:29;26.50;99.90
19555;DHT22;9924;50.828;6.440;2023-09-08T08:02:56;26.70;99.90
19555;DHT22;9924;50.828;6.440;2023-09-08T08:05:23;26.90;99.90
19555;DHT22;9924;50.828;6.440;2023-09-08T08:07:49;26.70;99.90
19555;DHT22;9924;50.828;6.440;2023-09-08T08:10:15;26.90;99.90
19555;DHT22;9924;50.828;6.440;2023-09-08T08:12:42;27.10;99.90
19555;DHT22;9924;50.828;6.440;2023-09-08T08:15:09;27.10;99.90
19555;DHT22;9924;50.828;6.440;2023-09-08T08:17:38;27.10;99.90
19555;DHT22;9924;50.828;6.440;2023-09-08T08:20:05;27.00;99.90
19555;DHT22;9924;50.828;6.440;2023-09-08T08:22:33;27.10;99.90
19555;DHT22;9924;50.828;6.440;2023-09-08T08:24:59;27.10;99.90
19555;DHT22;9924;50.828;6.440;2023-09-08T08:27:25;27.10;99.90
19555;DHT22;9924;50.828;6.440;2023-09-08T08:29:51;27.10;99.90
19555;DHT22;9924;50.828;6.440;2023-09-08T08:32:17;27.10;99.90
19555;DHT22;9924;50.828;6.440;2023-09-08T08:34:43;27.20;99.90
19555;DHT22;9924;50.828;6.440;2023-09-08T08:37:10;27.10;99.90
19555;DHT22;9924;50.828;6.440;2023-09-08T08:39:36;27.10;99.90
19555;DHT22;9924;50.828;6.440;2023-09-08T08:42:09;27.00;99.90
19555;DHT22;9924;50.828;6.440;2023-09-08T08:44:35;27.10;99.90
19555;DHT22;9924;50.828;6.440;2023-09-08T08:47:03;27.20;99.90
19555;DHT22;9924;50.828;6.440;2023-09-08T08:49:31;27.40;99.90
19555;DHT22;9924;50.828;6.440;2023-09-08T08:51:58;27.50;99.90
19555;DHT22;9924;50.828;6.440;2023-09-08T08:54:24;27.70;99.90
19555;DHT22;9924;50.828;6.440;2023-09-08T08:56:50;27.70;99.90
19555;DHT22;9924;50.828;6.440;2023-09-08T08:59:17;27.70;99.90
19555;DHT22;9924;50.828;6.440;2023-09-08T09:01:43;27.80;99.90
19555;DHT22;9924;50.828;6.440;2023-09-08T09:04:10;28.00;99.90
19555;DHT22;9924;50.828;6.440;2023-09-08T09:06:36;28.10;99.90
19555;DHT22;9924;50.828;6.440;2023-09-08T09:09:02;28.20;99.90
19555;DHT22;9924;50.828;6.440;2023-09-08T09:11:30;28.30;99.90
19555;DHT22;9924;50.828;6.440;2023-09-08T09:13:57;28.30;99.90
19555;DHT22;9924;50.828;6.440;2023-09-08T09:16:23;28.50;99.90
19555;DHT22;9924;50.828;6.440;2023-09-08T09:18:56;28.60;99.90
19555;DHT22;9924;50.828;6.440;2023-09-08T09:21:23;28.60;99.90
19555;DHT22;9924;50.828;6.440;2023-09-08T09:23:49;28.70;99.90
19555;DHT22;9924;50.828;6.440;2023-09-08T09:26:25;28.80;99.90
19555;DHT22;9924;50.828;6.440;2023-09-08T09:28:51;28.90;99.90
19555;DHT22;9924;50.828;6.440;2023-09-08T09:31:28;28.90;99.90
19555;DHT22;9924;50.828;6.440;2023-09-08T09:34:02;29.10;99.90
19555;DHT22;9924;50.828;6.440;2023-09-08T09:36:30;29.20;99.90
19555;DHT22;9924;50.828;6.440;2023-09-08T09:38:59;29.10;99.90
19555;DHT22;9924;50.828;6.440;2023-09-08T09:41:28;29.20;99.90
19555;DHT22;9924;50.828;6.440;2023-09-08T09:43:57;29.30;99.90
19555;DHT22;9924;50.828;6.440;2023-09-08T09:46:23;29.10;99.90
19555;DHT22;9924;50.828;6.440;2023-09-08T09:48:54;29.20;99.90
19555;DHT22;9924;50.828;6.440;2023-09-08T09:51:22;29.40;99.90
19555;DHT22;9924;50.828;6.440;2023-09-08T09:53:50;29.40;99.90
19555;DHT22;9924;50.828;6.440;2023-09-08T09:56:17;29.60;99.90
19555;DHT22;9924;50.828;6.440;2023-09-08T09:58:44;29.70;99.90
19555;DHT22;9924;50.828;6.440;2023-09-08T10:01:11;30.00;99.90
19555;DHT22;9924;50.828;6.440;2023-09-08T10:03:39;30.30;99.90
19555;DHT22;9924;50.828;6.440;2023-09-08T10:06:05;30.60;99.90
19555;DHT22;9924;50.828;6.440;2023-09-08T10:08:34;30.60;99.90
19555;DHT22;9924;50.828;6.440;2023-09-08T10:11:06;30.70;99.90
19555;DHT22;9924;50.828;6.440;2023-09-08T10:13:40;30.70;99.90
19555;DHT22;9924;50.828;6.440;2023-09-08T10:18:35;31.00;99.90
19555;DHT22;9924;50.828;6.440;2023-09-08T10:21:04;31.10;99.90
19555;DHT22;9924;50.828;6.440;2023-09-08T10:23:36;31.20;99.90
19555;DHT22;9924;50.828;6.440;2023-09-08T10:26:11;31.00;99.90
19555;DHT22;9924;50.828;6.440;2023-09-08T10:28:37;31.20;99.90
19555;DHT22;9924;50.828;6.440;2023-09-08T10:31:04;31.40;99.90
19555;DHT22;9924;50.828;6.440;2023-09-08T10:33:31;31.60;99.90
19555;DHT22;9924;50.828;6.440;2023-09-08T10:35:58;31.70;99.90
19555;DHT22;9924;50.828;6.440;2023-09-08T10:38:32;31.90;99.90
19555;DHT22;9924;50.828;6.440;2023-09-08T10:44:01;31.60;99.90
19555;DHT22;9924;50.828;6.440;2023-09-08T10:46:29;31.80;99.90
19555;DHT22;9924;50.828;6.440;2023-09-08T10:49:02;32.10;99.90
19555;DHT22;9924;50.828;6.440;2023-09-08T10:51:29;32.20;99.90
19555;DHT22;9924;50.828;6.440;2023-09-08T10:53:54;32.40;99.90
19555;DHT22;9924;50.828;6.440;2023-09-08T10:56:20;32.80;99.90
19555;DHT22;9924;50.828;6.440;2023-09-08T10:58:51;33.20;99.90
19555;DHT22;9924;50.828;6.440;2023-09-08T11:01:21;33.00;99.90
19555;DHT22;9924;50.828;6.440;2023-09-08T11:03:53;32.90;99.90
19555;DHT22;9924;50.828;6.440;2023-09-08T11:06:20;32.80;99.90
19555;DHT22;9924;50.828;6.440;2023-09-08T11:08:48;33.10;99.90
19555;DHT22;9924;50.828;6.440;2023-09-08T11:11:16;33.30;99.90
19555;DHT22;9924;50.828;6.440;2023-09-08T11:13:42;33.40;99.90
19555;DHT22;9924;50.828;6.440;2023-09-08T11:16:11;33.70;99.90
19555;DHT22;9924;50.828;6.440;2023-09-08T11:18:37;34.00;99.90
19555;DHT22;9924;50.828;6.440;2023-09-08T11:21:08;34.00;99.90
19555;DHT22;9924;50.828;6.440;2023-09-08T11:23:34;34.00;99.90
19555;DHT22;9924;50.828;6.440;2023-09-08T11:26:00;34.10;99.90
19555;DHT22;9924;50.828;6.440;2023-09-08T11:28:28;34.30;99.90
19555;DHT22;9924;50.828;6.440;2023-09-08T11:30:54;34.30;99.90
19555;DHT22;9924;50.828;6.440;2023-09-08T11:33:22;34.30;99.90
19555;DHT22;9924;50.828;6.440;2023-09-08T11:35:51;34.30;99.90
19555;DHT22;9924;50.828;6.440;2023-09-08T11:38:18;34.40;99.90
19555;DHT22;9924;50.828;6.440;2023-09-08T11:40:45;34.30;99.90
19555;DHT22;9924;50.828;6.440;2023-09-08T11:43:11;34.50;99.90
19555;DHT22;9924;50.828;6.440;2023-09-08T11:45:37;34.70;99.90
19555;DHT22;9924;50.828;6.440;2023-09-08T11:48:03;34.80;99.90
19555;DHT22;9924;50.828;6.440;2023-09-08T11:50:30;35.20;99.90
19555;DHT22;9924;50.828;6.440;2023-09-08T11:52:57;35.20;99.90
19555;DHT22;9924;50.828;6.440;2023-09-08T11:55:24;35.10;99.90
19555;DHT22;9924;50.828;6.440;2023-09-08T11:57:53;35.10;99.90
19555;DHT22;9924;50.828;6.440;2023-09-08T12:00:27;35.00;99.90
19555;DHT22;9924;50.828;6.440;2023-09-08T12:02:53;34.90;99.90
19555;DHT22;9924;50.828;6.440;2023-09-08T12:05:24;34.90;99.90
19555;DHT22;9924;50.828;6.440;2023-09-08T12:07:59;34.90;99.90
19555;DHT22;9924;50.828;6.440;2023-09-08T12:10:25;35.00;99.90
19555;DHT22;9924;50.828;6.440;2023-09-08T12:12:52;35.10;99.90
19555;DHT22;9924;50.828;6.440;2023-09-08T12:15:35;35.10;99.90
19555;DHT22;9924;50.828;6.440;2023-09-08T12:18:02;35.40;99.90
19555;DHT22;9924;50.828;6.440;2023-09-08T12:20:29;36.00;99.90
19555;DHT22;9924;50.828;6.440;2023-09-08T12:22:58;36.30;99.90
19555;DHT22;9924;50.828;6.440;2023-09-08T12:25:24;36.40;99.90
19555;DHT22;9924;50.828;6.440;2023-09-08T12:27:50;36.10;99.90
19555;DHT22;9924;50.828;6.440;2023-09-08T12:30:23;35.90;99.90
19555;DHT22;9924;50.828;6.440;2023-09-08T12:32:58;36.00;99.90
19555;DHT22;9924;50.828;6.440;2023-09-08T12:35:25;36.10;99.90
19555;DHT22;9924;50.828;6.440;2023-09-08T12:37:59;36.20;99.90
19555;DHT22;9924;50.828;6.440;2023-09-08T12:40:33;36.40;99.90
19555;DHT22;9924;50.828;6.440;2023-09-08T12:42:58;36.30;99.90
19555;DHT22;9924;50.828;6.440;2023-09-08T12:45:26;36.40;99.90
19555;DHT22;9924;50.828;6.440;2023-09-08T12:47:52;36.50;99.90
19555;DHT22;9924;50.828;6.440;2023-09-08T12:50:20;36.30;99.90
19555;DHT22;9924;50.828;6.440;2023-09-08T12:52:46;36.50;99.90
19555;DHT22;9924;50.828;6.440;2023-09-08T12:55:12;36.70;99.80
19555;DHT22;9924;50.828;6.440;2023-09-08T12:57:38;36.60;99.90
19555;DHT22;9924;50.828;6.440;2023-09-08T13:00:06;36.60;99.80
19555;DHT22;9924;50.828;6.440;2023-09-08T13:02:33;36.50;99.50
19555;DHT22;9924;50.828;6.440;2023-09-08T13:04:58;36.50;99.90
19555;DHT22;9924;50.828;6.440;2023-09-08T13:07:24;36.50;99.90
19555;DHT22;9924;50.828;6.440;2023-09-08T13:09:51;36.50;98.60
19555;DHT22;9924;50.828;6.440;2023-09-08T13:12:17;36.60;99.10
19555;DHT22;9924;50.828;6.440;2023-09-08T13:14:43;36.80;99.50
19555;DHT22;9924;50.828;6.440;2023-09-08T13:17:11;36.70;99.10
19555;DHT22;9924;50.828;6.440;2023-09-08T13:19:37;36.50;98.30
19555;DHT22;9924;50.828;6.440;2023-09-08T13:22:06;36.50;98.70
19555;DHT22;9924;50.828;6.440;2023-09-08T13:24:32;36.80;98.60
19555;DHT22;9924;50.828;6.440;2023-09-08T13:26:59;36.90;98.90
19555;DHT22;9924;50.828;6.440;2023-09-08T13:29:27;37.10;97.50
19555;DHT22;9924;50.828;6.440;2023-09-08T13:31:53;37.30;99.90
19555;DHT22;9924;50.828;6.440;2023-09-08T13:34:20;37.30;97.40
19555;DHT22;9924;50.828;6.440;2023-09-08T13:36:47;37.20;98.00
19555;DHT22;9924;50.828;6.440;2023-09-08T13:39:12;37.20;97.50
19555;DHT22;9924;50.828;6.440;2023-09-08T13:41:50;37.20;97.90
19555;DHT22;9924;50.828;6.440;2023-09-08T13:44:17;37.60;97.50
19555;DHT22;9924;50.828;6.440;2023-09-08T13:46:43;37.50;96.90
19555;DHT22;9924;50.828;6.440;2023-09-08T13:49:09;37.20;96.70
19555;DHT22;9924;50.828;6.440;2023-09-08T13:51:34;37.30;96.50
19555;DHT22;9924;50.828;6.440;2023-09-08T13:54:01;37.70;98.00
19555;DHT22;9924;50.828;6.440;2023-09-08T13:56:27;37.90;96.40
19555;DHT22;9924;50.828;6.440;2023-09-08T13:58:52;38.00;96.90
19555;DHT22;9924;50.828;6.440;2023-09-08T14:01:18;38.60;95.50
19555;DHT22;9924;50.828;6.440;2023-09-08T14:03:43;38.90;95.10
19555;DHT22;9924;50.828;6.440;2023-09-08T14:06:09;38.90;94.20
19555;DHT22;9924;50.828;6.440;2023-09-08T14:08:35;38.70;95.20
19555;DHT22;9924;50.828;6.440;2023-09-08T14:11:00;38.50;94.70
19555;DHT22;9924;50.828;6.440;2023-09-08T14:13:27;38.40;93.60
19555;DHT22;9924;50.828;6.440;2023-09-08T14:15:53;37.80;93.50
19555;DHT22;9924;50.828;6.440;2023-09-08T14:18:19;37.50;94.50
19555;DHT22;9924;50.828;6.440;2023-09-08T14:20:45;37.30;95.30
19555;DHT22;9924;50.828;6.440;2023-09-08T14:23:10;37.10;95.60
19555;DHT22;9924;50.828;6.440;2023-09-08T14:25:36;37.10;96.20
19555;DHT22;9924;50.828;6.440;2023-09-08T14:28:02;37.30;94.90
19555;DHT22;9924;50.828;6.440;2023-09-08T14:30:30;37.70;95.00
19555;DHT22;9924;50.828;6.440;2023-09-08T14:32:56;37.70;95.30
19555;DHT22;9924;50.828;6.440;2023-09-08T14:35:22;37.30;94.60
19555;DHT22;9924;50.828;6.440;2023-09-08T14:37:47;37.10;94.70
19555;DHT22;9924;50.828;6.440;2023-09-08T14:40:14;37.50;94.10
19555;DHT22;9924;50.828;6.440;2023-09-08T14:42:40;37.70;93.50
19555;DHT22;9924;50.828;6.440;2023-09-08T14:45:07;37.70;94.00
19555;DHT22;9924;50.828;6.440;2023-09-08T14:47:33;37.90;93.70
19555;DHT22;9924;50.828;6.440;2023-09-08T14:49:59;37.80;94.60
19555;DHT22;9924;50.828;6.440;2023-09-08T14:52:24;37.50;94.00
19555;DHT22;9924;50.828;6.440;2023-09-08T14:54:50;37.20;94.90
19555;DHT22;9924;50.828;6.440;2023-09-08T14:57:16;37.20;94.60
19555;DHT22;9924;50.828;6.440;2023-09-08T14:59:42;37.20;94.40
19555;DHT22;9924;50.828;6.440;2023-09-08T15:02:10;37.40;95.30
19555;DHT22;9924;50.828;6.440;2023-09-08T15:04:36;37.30;95.40
19555;DHT22;9924;50.828;6.440;2023-09-08T15:07:03;37.00;95.30
19555;DHT22;9924;50.828;6.440;2023-09-08T15:09:29;36.70;96.10
19555;DHT22;9924;50.828;6.440;2023-09-08T15:11:54;36.80;95.70
19555;DHT22;9924;50.828;6.440;2023-09-08T15:14:20;36.70;95.10
19555;DHT22;9924;50.828;6.440;2023-09-08T15:16:46;36.60;96.10
19555;DHT22;9924;50.828;6.440;2023-09-08T15:19:12;36.40;96.00
19555;DHT22;9924;50.828;6.440;2023-09-08T15:21:37;36.50;96.30
19555;DHT22;9924;50.828;6.440;2023-09-08T15:24:04;36.30;96.90
19555;DHT22;9924;50.828;6.440;2023-09-08T15:26:30;36.20;96.40
19555;DHT22;9924;50.828;6.440;2023-09-08T15:28:56;35.90;95.90
19555;DHT22;9924;50.828;6.440;2023-09-08T15:31:21;35.80;96.70
19555;DHT22;9924;50.828;6.440;2023-09-08T15:33:48;35.70;97.30
19555;DHT22;9924;50.828;6.440;2023-09-08T15:36:13;35.80;97.10
19555;DHT22;9924;50.828;6.440;2023-09-08T15:38:39;35.80;97.10
19555;DHT22;9924;50.828;6.440;2023-09-08T15:43:39;36.00;96.50
19555;DHT22;9924;50.828;6.440;2023-09-08T15:46:06;36.20;96.20
19555;DHT22;9924;50.828;6.440;2023-09-08T15:48:33;36.20;97.30
19555;DHT22;9924;50.828;6.440;2023-09-08T15:50:59;36.00;97.10